Aérodrome :
LOGIN :

S'inscrire | Disclaimer

   EN    FR    IT 

 










Légende :    VFR   VFR Marginal   IFR   IFR Intensif   IFR Très Intensif
Visi : 
Plafond : 
>= 8 km
>= 3000ft
5 à 8 km
1000 à 3000 ft
1500m à 5 km
500 à 1000 ft
800 à 1500m
200 à 500 ft
< 800m
< 200 ft
Symboles :   Orages  Brouillard  Fortes neiges  Fortes précipitations  Vent > 20 kt
SIGMETs :   Divers  Orages  Givrage  Turbulence  Onde Orograph.  Cendres Volcan.






- Altitude de l'aérodrome : 314 ft
- Code IATA : OTP


LROP - Bucarest - Henri Coanda

DERNIER METAR :
  • 260100Z VRB02KT CAVOK 10/10 Q1020 NOSIG

METARs EXPIRÉS :
  • 260030Z 23004KT CAVOK 10/10 Q1021 NOSIG
  • 260000Z 22004KT CAVOK 10/10 Q1021 NOSIG
  • 252330Z 23005KT CAVOK 10/10 Q1021 NOSIG
  • 252300Z 22005KT CAVOK 10/10 Q1021 NOSIG
  • 252230Z 29003KT CAVOK 10/10 Q1020 NOSIG

TAF TAF LROP
Valide du 26 à 00h jusqu'au 27 à 00h UTC


252300Z 2600/2700 VRB04KT CAVOK
PROB30
TEMPO 2601/2605 5000 -SHRA SCT040CB
BECMG 2607/2609 06010KT SCT040CB
TEMPO 2611/2617 5000 TSRA BKN015 BKN030CB
BECMG 2617/2619 NSC



MET'MAP, la Météo Aéronautique d'un coup d'oeil ! - Copyright ORBIFLY Décembre 2007 - Disclaimer

ORBIFLY MET'MAP TEAM :

Programmation & Développement : Alexandra Zaïnal
Sur une idée originale de : Baudouin d'Aumeries
Assistance à la programmation : Marc-Olivier Méhu
Soutien technique & logistique : Manuel Goepfert

Contact : metmap@orbifly.com




SOURCES & CREDITS :

   NOAA